createdAt,value
2017-08-27T00:00:20.583Z,39.91
2017-08-27T00:01:21.198Z,39.72
2017-08-27T00:02:21.951Z,39.72
2017-08-27T00:03:22.573Z,39.72
2017-08-27T00:04:23.224Z,39.62
2017-08-27T00:05:23.866Z,39.53
2017-08-27T00:06:24.462Z,39.53
2017-08-27T00:07:25.181Z,39.72
2017-08-27T00:08:25.805Z,40.00
2017-08-27T00:09:26.419Z,39.89
2017-08-27T00:10:27.038Z,39.98
2017-08-27T00:11:27.658Z,39.81
2017-08-27T00:12:28.376Z,39.91
2017-08-27T00:13:28.993Z,40.10
2017-08-27T00:14:29.612Z,39.81
2017-08-27T00:15:30.231Z,39.91
2017-08-27T00:16:30.851Z,40.00
2017-08-27T00:17:31.568Z,39.72
2017-08-27T00:18:32.218Z,39.72
2017-08-27T00:19:32.837Z,39.62
2017-08-27T00:20:33.456Z,39.53
2017-08-27T00:21:34.075Z,40.10
2017-08-27T00:22:34.800Z,39.81
2017-08-27T00:23:35.415Z,39.89
2017-08-27T00:24:36.032Z,40.08
2017-08-27T00:25:36.654Z,40.17
2017-08-27T00:26:37.272Z,40.08
2017-08-27T00:27:37.992Z,39.79
2017-08-27T00:28:38.609Z,40.08
2017-08-27T00:29:39.264Z,40.37
2017-08-27T00:30:39.880Z,40.47
2017-08-27T00:31:40.498Z,41.04
2017-08-27T00:32:41.216Z,40.84
2017-08-27T00:33:41.872Z,40.84
2017-08-27T00:34:42.487Z,40.84
2017-08-27T00:35:43.106Z,41.02
2017-08-27T00:36:43.735Z,40.83
2017-08-27T00:37:44.459Z,41.13
2017-08-27T00:38:45.081Z,40.94
2017-08-27T00:39:45.698Z,41.21
2017-08-27T00:40:46.323Z,41.11
2017-08-27T00:41:46.938Z,41.40
2017-08-27T00:42:47.694Z,41.60
2017-08-27T00:43:48.315Z,41.50
2017-08-27T00:44:48.935Z,41.69
2017-08-27T00:45:49.552Z,41.40
2017-08-27T00:46:50.171Z,41.40
2017-08-27T00:47:50.888Z,41.97
2017-08-27T00:48:51.538Z,41.31
2017-08-27T00:49:52.157Z,41.60
2017-08-27T00:50:52.772Z,41.31
2017-08-27T00:51:53.391Z,41.78
2017-08-27T00:52:54.110Z,41.60
2017-08-27T00:53:54.731Z,41.78
2017-08-27T00:54:55.346Z,41.31
2017-08-27T00:55:55.963Z,42.36
2017-08-27T00:56:56.582Z,42.27
2017-08-27T00:57:57.301Z,41.69
2017-08-27T00:58:57.951Z,41.60
2017-08-27T00:59:58.568Z,41.78
2017-08-27T01:00:59.222Z,41.60
2017-08-27T01:01:59.837Z,42.27
2017-08-27T01:03:00.554Z,41.88
2017-08-27T01:04:01.173Z,42.27
2017-08-27T01:05:01.825Z,42.07
2017-08-27T01:06:02.442Z,42.07
2017-08-27T01:07:03.059Z,42.07
2017-08-27T01:08:03.777Z,42.27
2017-08-27T01:09:04.429Z,42.27
2017-08-27T01:10:05.047Z,42.27
2017-08-27T01:11:05.667Z,42.27
2017-08-27T01:12:06.322Z,41.60
2017-08-27T01:13:07.038Z,41.69
2017-08-27T01:14:07.655Z,41.78
2017-08-27T01:15:08.274Z,42.17
2017-08-27T01:16:08.890Z,42.17
2017-08-27T01:17:09.510Z,42.27
2017-08-27T01:18:10.234Z,42.17
2017-08-27T01:19:10.882Z,42.17
2017-08-27T01:20:11.505Z,42.07
2017-08-27T01:21:12.118Z,42.27
2017-08-27T01:22:12.740Z,42.27
2017-08-27T01:23:13.457Z,42.17
2017-08-27T01:24:14.073Z,42.17
2017-08-27T01:25:14.690Z,42.27
2017-08-27T01:26:15.314Z,42.36
2017-08-27T01:27:15.930Z,42.36
2017-08-27T01:28:16.654Z,42.27
2017-08-27T01:29:17.269Z,42.46
2017-08-27T01:30:17.922Z,42.46
2017-08-27T01:31:18.542Z,42.36
2017-08-27T01:32:19.155Z,42.65
2017-08-27T01:33:19.880Z,42.27
2017-08-27T01:34:20.495Z,42.36
2017-08-27T01:35:21.113Z,42.46
2017-08-27T01:36:21.730Z,42.55
2017-08-27T01:37:22.355Z,42.55
2017-08-27T01:38:23.071Z,42.65
2017-08-27T01:39:23.689Z,42.74
2017-08-27T01:40:24.306Z,42.65
2017-08-27T01:41:24.928Z,42.55
2017-08-27T01:42:25.575Z,42.55
2017-08-27T01:43:26.294Z,42.55
2017-08-27T01:44:26.943Z,42.46
2017-08-27T01:45:27.561Z,42.74
2017-08-27T01:46:28.180Z,42.74
2017-08-27T01:47:28.796Z,42.82
2017-08-27T01:48:29.550Z,43.30
2017-08-27T01:49:30.170Z,43.49
2017-08-27T01:50:30.790Z,43.30
2017-08-27T01:51:31.404Z,43.49
2017-08-27T01:52:32.023Z,43.59
2017-08-27T01:53:32.739Z,43.49
2017-08-27T01:54:33.357Z,43.49
2017-08-27T01:55:33.975Z,43.68
2017-08-27T01:56:34.629Z,43.77
2017-08-27T01:57:35.242Z,43.87
2017-08-27T01:58:35.960Z,44.45
2017-08-27T01:59:36.585Z,43.77
2017-08-27T02:00:37.200Z,43.97
2017-08-27T02:01:37.816Z,44.06
2017-08-27T02:02:38.435Z,44.06
2017-08-27T02:03:39.153Z,44.26
2017-08-27T02:04:39.778Z,44.35
2017-08-27T02:05:40.392Z,44.35
2017-08-27T02:06:41.011Z,44.06
2017-08-27T02:07:41.628Z,44.64
2017-08-27T02:08:42.346Z,44.64
2017-08-27T02:09:42.968Z,44.35
2017-08-27T02:10:43.579Z,44.26
2017-08-27T02:11:44.203Z,44.45
2017-08-27T02:12:44.856Z,44.64
2017-08-27T02:13:45.571Z,44.35
2017-08-27T02:14:46.190Z,44.45
2017-08-27T02:15:46.810Z,44.73
2017-08-27T02:16:47.428Z,44.73
2017-08-27T02:17:48.044Z,44.73
2017-08-27T02:18:48.761Z,44.45
2017-08-27T02:19:49.378Z,44.54
2017-08-27T02:20:49.994Z,44.93
2017-08-27T02:21:50.614Z,44.93
2017-08-27T02:22:51.235Z,44.83
2017-08-27T02:23:51.949Z,44.83
2017-08-27T02:24:52.571Z,44.93
2017-08-27T02:25:53.184Z,44.73
2017-08-27T02:26:53.803Z,45.12
2017-08-27T02:27:54.419Z,44.81
2017-08-27T02:28:55.136Z,44.83
2017-08-27T02:29:55.753Z,44.83
2017-08-27T02:30:56.369Z,45.02
2017-08-27T02:31:56.992Z,45.12
2017-08-27T02:32:57.610Z,44.83
2017-08-27T02:33:58.322Z,45.12
2017-08-27T02:34:58.972Z,45.21
2017-08-27T02:35:59.591Z,44.83
2017-08-27T02:37:00.207Z,44.93
2017-08-27T02:38:00.825Z,45.21
2017-08-27T02:39:01.544Z,44.73
2017-08-27T02:40:02.164Z,45.31
2017-08-27T02:41:02.780Z,44.93
2017-08-27T02:42:03.396Z,44.93
2017-08-27T02:43:04.015Z,44.93
2017-08-27T02:44:04.731Z,44.73
2017-08-27T02:45:05.356Z,45.02
2017-08-27T02:46:05.971Z,44.83
2017-08-27T02:47:06.588Z,44.54
2017-08-27T02:48:07.205Z,44.35
2017-08-27T02:49:07.922Z,44.73
2017-08-27T02:50:08.540Z,44.73
2017-08-27T02:51:09.157Z,44.83
2017-08-27T02:52:09.776Z,44.45
2017-08-27T02:53:10.392Z,44.54
2017-08-27T02:54:11.110Z,44.45
2017-08-27T02:55:11.727Z,44.54
2017-08-27T02:56:12.344Z,44.45
2017-08-27T02:57:12.968Z,44.06
2017-08-27T02:58:13.581Z,44.35
2017-08-27T02:59:14.297Z,44.26
2017-08-27T03:00:14.920Z,43.97
2017-08-27T03:01:15.535Z,44.06
2017-08-27T03:02:16.158Z,44.06
2017-08-27T03:03:16.811Z,43.97
2017-08-27T03:04:17.732Z,43.68
2017-08-27T03:05:18.346Z,43.68
2017-08-27T03:06:18.965Z,43.59
2017-08-27T03:07:19.581Z,43.59
2017-08-27T03:08:20.199Z,43.68
2017-08-27T03:09:20.919Z,43.87
2017-08-27T03:10:21.538Z,43.68
2017-08-27T03:11:22.156Z,43.87
2017-08-27T03:12:22.772Z,43.68
2017-08-27T03:13:23.391Z,43.68
2017-08-27T03:14:24.113Z,43.59
2017-08-27T03:15:24.733Z,43.59
2017-08-27T03:16:25.359Z,43.68
2017-08-27T03:17:25.969Z,43.68
2017-08-27T03:18:26.586Z,43.87
2017-08-27T03:19:27.304Z,43.68
2017-08-27T03:20:27.931Z,43.77
2017-08-27T03:21:28.540Z,43.87
2017-08-27T03:22:29.158Z,43.77
2017-08-27T03:23:29.779Z,43.59
2017-08-27T03:24:30.495Z,43.20
2017-08-27T03:25:31.112Z,43.68
2017-08-27T03:26:31.729Z,43.59
2017-08-27T03:27:32.352Z,43.59
2017-08-27T03:28:32.965Z,43.49
2017-08-27T03:29:33.690Z,43.20
2017-08-27T03:30:34.305Z,43.30
2017-08-27T03:31:34.951Z,43.30
2017-08-27T03:32:35.575Z,42.91
2017-08-27T03:33:36.188Z,43.30
2017-08-27T03:34:36.913Z,43.01
2017-08-27T03:35:37.528Z,43.10
2017-08-27T03:36:38.150Z,43.01
2017-08-27T03:37:38.799Z,43.10
2017-08-27T03:38:39.431Z,43.20
2017-08-27T03:39:40.175Z,43.10
2017-08-27T03:40:40.790Z,43.39
2017-08-27T03:41:41.409Z,43.77
2017-08-27T03:42:42.026Z,43.59
2017-08-27T03:43:42.673Z,43.18
2017-08-27T03:44:43.397Z,43.20
2017-08-27T03:45:44.014Z,43.01
2017-08-27T03:46:44.631Z,43.01
2017-08-27T03:47:45.247Z,43.10
2017-08-27T03:48:45.896Z,42.91
2017-08-27T03:49:46.614Z,42.91
2017-08-27T03:50:47.236Z,42.63
2017-08-27T03:51:47.886Z,42.63
2017-08-27T03:52:48.504Z,42.91
2017-08-27T03:53:49.125Z,43.01
2017-08-27T03:54:49.842Z,42.63
2017-08-27T03:55:50.460Z,42.91
2017-08-27T03:56:51.080Z,42.63
2017-08-27T03:57:51.726Z,42.72
2017-08-27T03:58:52.344Z,42.91
2017-08-27T03:59:53.068Z,42.82
2017-08-27T04:00:53.682Z,42.63
2017-08-27T04:01:54.331Z,42.53
2017-08-27T04:02:54.947Z,42.63
2017-08-27T04:03:55.570Z,42.44
2017-08-27T04:04:56.285Z,42.53
2017-08-27T04:05:56.902Z,42.44
2017-08-27T04:06:57.519Z,42.44
2017-08-27T04:07:58.136Z,42.44
2017-08-27T04:08:58.786Z,42.34
2017-08-27T04:09:59.502Z,42.34
2017-08-27T04:11:00.126Z,42.44
2017-08-27T04:12:00.740Z,42.63
2017-08-27T04:13:01.363Z,42.24
2017-08-27T04:14:01.982Z,42.44
2017-08-27T04:15:02.695Z,42.53
2017-08-27T04:16:03.318Z,42.44
2017-08-27T04:17:03.938Z,42.53
2017-08-27T04:18:04.554Z,42.24
2017-08-27T04:19:05.168Z,42.24
2017-08-27T04:20:06.088Z,42.34
2017-08-27T04:21:06.711Z,42.44
2017-08-27T04:22:07.326Z,42.34
2017-08-27T04:23:07.980Z,42.34
2017-08-27T04:24:08.600Z,42.34
2017-08-27T04:25:09.471Z,42.34
2017-08-27T04:26:10.119Z,42.24
2017-08-27T04:27:10.771Z,42.05
2017-08-27T04:28:11.388Z,42.34
2017-08-27T04:29:12.004Z,42.34
2017-08-27T04:30:12.720Z,42.14
2017-08-27T04:31:13.337Z,42.34
2017-08-27T04:32:13.954Z,42.24
2017-08-27T04:33:14.570Z,42.44
2017-08-27T04:34:15.191Z,42.24
2017-08-27T04:35:15.904Z,42.32
2017-08-27T04:36:16.528Z,42.22
2017-08-27T04:37:17.148Z,42.41
2017-08-27T04:38:17.762Z,42.32
2017-08-27T04:39:18.379Z,42.32
2017-08-27T04:40:19.301Z,42.32
2017-08-27T04:41:19.924Z,42.22
2017-08-27T04:42:20.537Z,42.41
2017-08-27T04:43:21.154Z,42.32
2017-08-27T04:44:21.770Z,42.60
2017-08-27T04:45:22.516Z,42.60
2017-08-27T04:46:23.148Z,42.51
2017-08-27T04:47:23.757Z,42.32
2017-08-27T04:48:24.373Z,42.51
2017-08-27T04:49:24.990Z,42.32
2017-08-27T04:50:25.707Z,42.22
2017-08-27T04:51:26.331Z,42.32
2017-08-27T04:52:26.946Z,41.94
2017-08-27T04:53:27.562Z,41.94
2017-08-27T04:54:28.186Z,42.22
2017-08-27T04:55:28.901Z,42.22
2017-08-27T04:56:29.520Z,42.22
2017-08-27T04:57:30.170Z,42.22
2017-08-27T04:58:30.787Z,42.03
2017-08-27T04:59:31.437Z,42.13
2017-08-27T05:00:32.188Z,41.94
2017-08-27T05:01:32.807Z,41.94
2017-08-27T05:02:33.422Z,41.84
2017-08-27T05:03:34.039Z,42.03
2017-08-27T05:04:34.659Z,42.05
2017-08-27T05:05:35.384Z,42.14
2017-08-27T05:06:35.999Z,41.57
2017-08-27T05:07:36.618Z,41.38
2017-08-27T05:08:37.237Z,41.96
2017-08-27T05:09:37.856Z,41.96
2017-08-27T05:10:38.573Z,41.57
2017-08-27T05:11:39.222Z,41.00
2017-08-27T05:12:39.840Z,41.48
2017-08-27T05:13:40.462Z,41.38
2017-08-27T05:14:41.080Z,41.57
2017-08-27T05:15:42.003Z,41.48
2017-08-27T05:16:42.619Z,41.48
2017-08-27T05:17:43.248Z,41.19
2017-08-27T05:18:43.895Z,41.09
2017-08-27T05:19:44.514Z,41.38
2017-08-27T05:20:45.245Z,41.00
2017-08-27T05:21:45.883Z,41.09
2017-08-27T05:22:46.501Z,41.09
2017-08-27T05:23:47.119Z,41.19
2017-08-27T05:24:47.741Z,41.19
2017-08-27T05:25:48.614Z,41.19
2017-08-27T05:26:49.234Z,41.38
2017-08-27T05:27:49.850Z,41.28
2017-08-27T05:28:50.468Z,41.19
2017-08-27T05:29:51.087Z,41.19
2017-08-27T05:30:51.804Z,41.19
2017-08-27T05:31:52.428Z,41.28
2017-08-27T05:32:53.045Z,41.38
2017-08-27T05:33:53.663Z,41.28
2017-08-27T05:34:54.280Z,41.38
2017-08-27T05:35:55.011Z,41.19
2017-08-27T05:36:55.620Z,41.28
2017-08-27T05:37:56.241Z,41.38
2017-08-27T05:38:56.890Z,41.28
2017-08-27T05:39:57.536Z,41.19
2017-08-27T05:40:58.154Z,41.19
2017-08-27T05:41:58.772Z,41.09
2017-08-27T05:42:59.389Z,41.19
2017-08-27T05:44:00.109Z,40.81
2017-08-27T05:45:00.735Z,41.19
2017-08-27T05:46:01.355Z,41.38
2017-08-27T05:47:01.973Z,41.19
2017-08-27T05:48:02.589Z,41.28
2017-08-27T05:49:03.308Z,40.90
2017-08-27T05:50:03.925Z,41.09
2017-08-27T05:51:04.549Z,41.00
2017-08-27T05:52:05.199Z,40.81
2017-08-27T05:53:05.819Z,41.09
2017-08-27T05:54:06.538Z,41.09
2017-08-27T05:55:07.156Z,41.00
2017-08-27T05:56:07.776Z,40.90
2017-08-27T05:57:08.396Z,41.09
2017-08-27T05:58:09.013Z,40.81
2017-08-27T05:59:09.763Z,40.90
2017-08-27T06:00:10.382Z,41.02
2017-08-27T06:01:10.999Z,40.54
2017-08-27T06:02:11.623Z,40.92
2017-08-27T06:03:12.248Z,40.54
2017-08-27T06:04:13.169Z,41.02
2017-08-27T06:05:13.820Z,41.11
2017-08-27T06:06:14.443Z,40.73
2017-08-27T06:07:15.064Z,40.73
2017-08-27T06:08:15.682Z,40.92
2017-08-27T06:09:16.408Z,40.83
2017-08-27T06:10:17.027Z,41.02
2017-08-27T06:11:17.649Z,41.21
2017-08-27T06:12:18.265Z,41.40
2017-08-27T06:13:18.883Z,41.40
2017-08-27T06:14:19.603Z,41.50
2017-08-27T06:15:20.222Z,41.78
2017-08-27T06:16:20.847Z,41.69
2017-08-27T06:17:21.469Z,41.69
2017-08-27T06:18:22.084Z,41.31
2017-08-27T06:19:22.803Z,42.17
2017-08-27T06:20:23.421Z,41.40
2017-08-27T06:21:24.040Z,41.97
2017-08-27T06:22:24.657Z,41.40
2017-08-27T06:23:25.307Z,41.21
2017-08-27T06:24:26.224Z,41.88
2017-08-27T06:25:26.845Z,41.50
2017-08-27T06:26:27.472Z,41.40
2017-08-27T06:27:28.117Z,41.42
2017-08-27T06:28:28.736Z,42.00
2017-08-27T06:29:29.462Z,41.02
2017-08-27T06:30:30.079Z,41.71
2017-08-27T06:31:30.696Z,41.42
2017-08-27T06:32:31.351Z,41.33
2017-08-27T06:33:31.976Z,41.33
2017-08-27T06:34:32.691Z,41.52
2017-08-27T06:35:33.317Z,41.23
2017-08-27T06:36:33.938Z,40.75
2017-08-27T06:37:34.554Z,40.66
2017-08-27T06:38:35.172Z,40.75
2017-08-27T06:39:35.890Z,41.04
2017-08-27T06:40:36.507Z,40.94
2017-08-27T06:41:37.133Z,40.66
2017-08-27T06:42:37.748Z,40.84
2017-08-27T06:43:38.372Z,40.66
2017-08-27T06:44:39.089Z,40.47
2017-08-27T06:45:39.709Z,40.75
2017-08-27T06:46:40.362Z,40.96
2017-08-27T06:47:40.988Z,40.96
2017-08-27T06:48:41.605Z,40.75
2017-08-27T06:49:42.329Z,40.67
2017-08-27T06:50:42.955Z,40.67
2017-08-27T06:51:43.573Z,40.66
2017-08-27T06:52:44.197Z,40.67
2017-08-27T06:53:44.817Z,40.58
2017-08-27T06:54:45.543Z,40.77
2017-08-27T06:55:46.168Z,40.87
2017-08-27T06:56:46.786Z,41.06
2017-08-27T06:57:47.412Z,40.67
2017-08-27T06:58:48.031Z,41.17
2017-08-27T06:59:48.754Z,40.70
2017-08-27T07:00:49.380Z,40.67
2017-08-27T07:01:50.034Z,40.89
2017-08-27T07:02:50.663Z,41.37
2017-08-27T07:03:51.281Z,40.79
2017-08-27T07:04:52.002Z,40.79
2017-08-27T07:05:52.625Z,41.17
2017-08-27T07:06:53.279Z,40.60
2017-08-27T07:07:53.899Z,40.60
2017-08-27T07:08:54.526Z,40.60
2017-08-27T07:09:55.243Z,40.99
2017-08-27T07:10:55.898Z,41.17
2017-08-27T07:11:56.533Z,41.08
2017-08-27T07:12:57.147Z,40.79
2017-08-27T07:13:57.765Z,40.79
2017-08-27T07:14:58.520Z,40.99
2017-08-27T07:15:59.141Z,40.89
2017-08-27T07:16:59.762Z,40.60
2017-08-27T07:18:00.384Z,41.08
2017-08-27T07:19:01.009Z,41.20
2017-08-27T07:20:01.730Z,40.60
2017-08-27T07:21:02.357Z,41.17
2017-08-27T07:22:02.976Z,40.79
2017-08-27T07:23:03.599Z,40.60
2017-08-27T07:24:04.227Z,40.99
2017-08-27T07:25:04.951Z,40.81
2017-08-27T07:26:05.570Z,40.70
2017-08-27T07:27:06.190Z,40.81
2017-08-27T07:28:06.816Z,40.62
2017-08-27T07:29:07.435Z,41.20
2017-08-27T07:30:08.158Z,40.72
2017-08-27T07:31:08.779Z,41.39
2017-08-27T07:32:09.407Z,41.00
2017-08-27T07:33:10.032Z,41.29
2017-08-27T07:34:10.670Z,41.39
2017-08-27T07:35:11.387Z,41.29
2017-08-27T07:36:12.008Z,41.20
2017-08-27T07:37:12.635Z,41.29
2017-08-27T07:38:13.289Z,41.41
2017-08-27T07:39:13.915Z,41.02
2017-08-27T07:40:14.637Z,41.22
2017-08-27T07:41:15.266Z,40.64
2017-08-27T07:42:15.890Z,40.73
2017-08-27T07:43:16.515Z,40.93
2017-08-27T07:44:17.135Z,41.02
2017-08-27T07:45:17.859Z,41.12
2017-08-27T07:46:18.483Z,40.93
2017-08-27T07:47:19.100Z,40.85
2017-08-27T07:48:19.724Z,40.93
2017-08-27T07:49:20.345Z,41.02
2017-08-27T07:50:21.067Z,41.33
2017-08-27T07:51:21.690Z,41.31
2017-08-27T07:52:22.312Z,41.62
2017-08-27T07:53:22.939Z,41.14
2017-08-27T07:54:23.555Z,41.24
2017-08-27T07:55:24.283Z,41.24
2017-08-27T07:56:24.903Z,40.95
2017-08-27T07:57:25.553Z,41.14
2017-08-27T07:58:26.175Z,41.24
2017-08-27T07:59:26.803Z,41.14
2017-08-27T08:00:27.524Z,40.85
2017-08-27T08:01:28.150Z,40.78
2017-08-27T08:02:28.775Z,40.78
2017-08-27T08:03:29.395Z,40.97
2017-08-27T08:04:30.018Z,40.49
2017-08-27T08:05:30.740Z,40.30
2017-08-27T08:06:31.364Z,39.91
2017-08-27T08:07:31.986Z,39.81
2017-08-27T08:08:32.609Z,39.53
2017-08-27T08:09:33.235Z,39.43
2017-08-27T08:10:33.953Z,39.43
2017-08-27T08:11:34.576Z,39.33
2017-08-27T08:12:35.198Z,39.14
2017-08-27T08:13:35.825Z,39.43
2017-08-27T08:14:36.446Z,39.24
2017-08-27T08:15:37.170Z,39.53
2017-08-27T08:16:37.794Z,39.14
2017-08-27T08:17:38.422Z,39.24
2017-08-27T08:18:39.077Z,39.33
2017-08-27T08:19:39.706Z,39.33
2017-08-27T08:20:40.421Z,39.24
2017-08-27T08:21:41.045Z,39.62
2017-08-27T08:22:41.669Z,39.24
2017-08-27T08:23:42.297Z,39.53
2017-08-27T08:24:42.924Z,39.24
2017-08-27T08:25:43.679Z,39.04
2017-08-27T08:26:44.302Z,38.85
2017-08-27T08:27:44.923Z,39.33
2017-08-27T08:28:45.548Z,39.24
2017-08-27T08:29:46.171Z,39.24
2017-08-27T08:30:46.893Z,39.24
2017-08-27T08:31:47.518Z,39.04
2017-08-27T08:32:48.179Z,39.16
2017-08-27T08:33:48.803Z,39.26
2017-08-27T08:34:49.463Z,39.16
2017-08-27T08:35:50.188Z,39.45
2017-08-27T08:36:50.843Z,38.87
2017-08-27T08:37:51.472Z,38.78
2017-08-27T08:38:52.107Z,38.39
2017-08-27T08:39:52.717Z,38.20
2017-08-27T08:40:53.447Z,38.29
2017-08-27T08:41:54.067Z,38.49
2017-08-27T08:42:54.723Z,38.68
2017-08-27T08:43:55.378Z,38.10
2017-08-27T08:44:56.032Z,38.49
2017-08-27T08:45:56.754Z,38.49
2017-08-27T08:46:57.381Z,38.68
2017-08-27T08:47:58.000Z,38.39
2017-08-27T08:48:58.628Z,38.51
2017-08-27T08:49:59.249Z,38.31
2017-08-27T08:50:59.974Z,38.51
2017-08-27T08:52:00.602Z,37.64
2017-08-27T08:53:01.230Z,37.83
2017-08-27T08:54:01.855Z,37.64
2017-08-27T08:55:02.480Z,37.26
2017-08-27T08:56:03.200Z,37.45
2017-08-27T08:57:03.824Z,37.26
2017-08-27T08:58:04.453Z,38.02
2017-08-27T08:59:05.075Z,38.12
2017-08-27T09:00:05.699Z,38.12
2017-08-27T09:01:06.422Z,38.12
2017-08-27T09:02:07.046Z,38.22
2017-08-27T09:03:07.675Z,38.12
2017-08-27T09:04:08.296Z,38.02
2017-08-27T09:05:08.918Z,37.83
2017-08-27T09:06:09.647Z,37.93
2017-08-27T09:07:10.277Z,37.93
2017-08-27T09:08:10.893Z,37.93
2017-08-27T09:09:11.517Z,37.95
2017-08-27T09:10:12.145Z,37.66
2017-08-27T09:11:12.867Z,37.37
2017-08-27T09:12:13.498Z,37.37
2017-08-27T09:13:14.117Z,37.46
2017-08-27T09:14:14.741Z,36.89
2017-08-27T09:15:15.369Z,37.08
2017-08-27T09:16:16.097Z,36.99
2017-08-27T09:17:16.717Z,36.69
2017-08-27T09:18:17.346Z,36.89
2017-08-27T09:19:17.968Z,35.93
2017-08-27T09:20:18.590Z,35.93
2017-08-27T09:21:19.320Z,35.93
2017-08-27T09:22:19.942Z,35.93
2017-08-27T09:23:20.606Z,35.73
2017-08-27T09:24:21.222Z,36.31
2017-08-27T09:25:21.848Z,36.51
2017-08-27T09:26:22.568Z,35.93
2017-08-27T09:27:23.192Z,35.83
2017-08-27T09:28:23.815Z,35.06
2017-08-27T09:29:24.439Z,34.48
2017-08-27T09:30:25.061Z,34.48
2017-08-27T09:31:25.788Z,35.04
2017-08-27T09:32:26.411Z,34.75
2017-08-27T09:33:27.040Z,35.16
2017-08-27T09:34:27.668Z,34.77
2017-08-27T09:35:28.289Z,34.38
2017-08-27T09:36:29.012Z,34.27
2017-08-27T09:37:29.637Z,34.46
2017-08-27T09:38:30.260Z,34.94
2017-08-27T09:39:30.883Z,34.75
2017-08-27T09:40:31.505Z,34.84
2017-08-27T09:41:32.233Z,34.84
2017-08-27T09:42:32.856Z,35.14
2017-08-27T09:43:33.478Z,34.84
2017-08-27T09:44:34.102Z,34.75
2017-08-27T09:45:34.759Z,35.42
2017-08-27T09:46:35.487Z,34.96
2017-08-27T09:47:36.141Z,35.04
2017-08-27T09:48:36.769Z,34.96
2017-08-27T09:49:37.392Z,35.06
2017-08-27T09:50:38.020Z,34.84
2017-08-27T09:51:38.753Z,34.48
2017-08-27T09:52:39.366Z,34.38
2017-08-27T09:53:39.989Z,34.48
2017-08-27T09:54:40.613Z,34.29
2017-08-27T09:55:41.236Z,33.91
2017-08-27T09:56:41.965Z,34.00
2017-08-27T09:57:42.585Z,34.00
2017-08-27T09:58:43.208Z,33.81
2017-08-27T09:59:43.834Z,34.00
2017-08-27T10:00:44.458Z,33.81
2017-08-27T10:01:45.215Z,34.48
2017-08-27T10:02:45.839Z,34.78
2017-08-27T10:03:46.461Z,33.92
2017-08-27T10:04:47.086Z,33.63
2017-08-27T10:05:47.741Z,33.15
2017-08-27T10:06:48.364Z,33.34
2017-08-27T10:07:48.989Z,33.25
2017-08-27T10:08:49.612Z,33.73
2017-08-27T10:09:50.337Z,33.44
2017-08-27T10:10:50.964Z,32.86
2017-08-27T10:11:51.593Z,32.76
2017-08-27T10:12:52.210Z,32.67
2017-08-27T10:13:52.844Z,32.76
2017-08-27T10:14:53.567Z,32.87
2017-08-27T10:15:54.191Z,33.36
2017-08-27T10:16:54.822Z,33.17
2017-08-27T10:17:55.440Z,32.89
2017-08-27T10:18:56.064Z,32.21
2017-08-27T10:19:56.789Z,31.63
2017-08-27T10:20:57.414Z,31.63
2017-08-27T10:21:58.037Z,31.63
2017-08-27T10:22:58.664Z,31.25
2017-08-27T10:23:59.288Z,31.35
2017-08-27T10:25:00.015Z,30.87
2017-08-27T10:26:00.641Z,30.77
2017-08-27T10:27:01.265Z,30.38
2017-08-27T10:28:01.890Z,30.77
2017-08-27T10:29:02.545Z,30.29
2017-08-27T10:30:03.269Z,30.58
2017-08-27T10:31:03.901Z,30.29
2017-08-27T10:32:04.521Z,30.67
2017-08-27T10:33:05.146Z,30.58
2017-08-27T10:34:05.776Z,30.77
2017-08-27T10:35:06.498Z,29.82
2017-08-27T10:36:07.128Z,30.30
2017-08-27T10:37:07.789Z,30.11
2017-08-27T10:38:08.417Z,30.11
2017-08-27T10:39:09.044Z,29.43
2017-08-27T10:40:09.764Z,30.01
2017-08-27T10:41:10.390Z,30.11
2017-08-27T10:42:11.014Z,30.21
2017-08-27T10:43:11.638Z,30.01
2017-08-27T10:44:12.267Z,29.82
2017-08-27T10:45:12.995Z,29.72
2017-08-27T10:46:13.615Z,29.34
2017-08-27T10:47:14.245Z,29.43
2017-08-27T10:48:14.865Z,29.42
2017-08-27T10:49:15.490Z,29.91
2017-08-27T10:50:16.220Z,30.01
2017-08-27T10:51:16.843Z,29.43
2017-08-27T10:52:17.467Z,29.22
2017-08-27T10:53:18.092Z,29.72
2017-08-27T10:54:18.716Z,29.91
2017-08-27T10:55:19.440Z,29.91
2017-08-27T10:56:20.071Z,29.72
2017-08-27T10:57:20.698Z,29.34
2017-08-27T10:58:21.321Z,29.34
2017-08-27T10:59:21.946Z,29.72
2017-08-27T11:00:22.672Z,29.35
2017-08-27T11:01:23.330Z,29.55
2017-08-27T11:02:23.956Z,29.35
2017-08-27T11:03:24.581Z,29.46
2017-08-27T11:04:25.212Z,29.46
2017-08-27T11:05:25.934Z,29.66
2017-08-27T11:06:26.560Z,29.47
2017-08-27T11:07:27.189Z,28.80
2017-08-27T11:08:27.811Z,28.80
2017-08-27T11:09:28.469Z,28.61
2017-08-27T11:10:29.198Z,28.61
2017-08-27T11:11:29.825Z,29.39
2017-08-27T11:12:30.481Z,29.10
2017-08-27T11:13:31.151Z,28.62
2017-08-27T11:14:31.768Z,28.92
2017-08-27T11:15:32.396Z,29.02
2017-08-27T11:16:33.021Z,28.05
2017-08-27T11:17:33.647Z,26.78
2017-08-27T11:18:34.403Z,27.26
2017-08-27T11:19:35.028Z,27.73
2017-08-27T11:20:35.655Z,28.41
2017-08-27T11:21:36.280Z,28.52
2017-08-27T11:22:36.910Z,27.94
2017-08-27T11:23:37.635Z,27.46
2017-08-27T11:24:38.261Z,28.22
2017-08-27T11:25:38.886Z,27.93
2017-08-27T11:26:39.518Z,28.43
2017-08-27T11:27:40.143Z,28.04
2017-08-27T11:28:40.867Z,27.36
2017-08-27T11:29:41.493Z,27.56
2017-08-27T11:30:42.150Z,27.94
2017-08-27T11:31:42.808Z,27.96
2017-08-27T11:32:43.442Z,28.25
2017-08-27T11:33:44.166Z,28.05
2017-08-27T11:34:44.791Z,28.07
2017-08-27T11:35:45.419Z,27.78
2017-08-27T11:36:46.046Z,26.52
2017-08-27T11:37:46.677Z,26.72
2017-08-27T11:38:47.398Z,26.42
2017-08-27T11:39:48.025Z,26.90
2017-08-27T11:40:48.660Z,27.49
2017-08-27T11:41:49.283Z,27.98
2017-08-27T11:42:49.910Z,27.11
2017-08-27T11:43:50.637Z,27.11
2017-08-27T11:44:51.265Z,25.66
2017-08-27T11:45:51.891Z,25.85
2017-08-27T11:46:52.517Z,26.34
2017-08-27T11:47:53.149Z,26.15
2017-08-27T11:48:54.078Z,26.05
2017-08-27T11:49:54.709Z,25.66
2017-08-27T11:50:55.333Z,25.74
2017-08-27T11:51:55.960Z,26.14
2017-08-27T11:52:56.586Z,25.74
2017-08-27T11:53:57.314Z,26.23
2017-08-27T11:54:57.945Z,26.32
2017-08-27T11:55:58.569Z,26.42
2017-08-27T11:56:59.194Z,26.32
2017-08-27T11:57:59.820Z,27.20
2017-08-27T11:59:00.553Z,26.81
2017-08-27T12:00:01.184Z,26.52
2017-08-27T12:01:01.808Z,25.84
2017-08-27T12:02:02.434Z,25.44
2017-08-27T12:03:03.060Z,25.34
2017-08-27T12:04:03.787Z,26.30
2017-08-27T12:05:04.413Z,26.48
2017-08-27T12:06:05.044Z,26.67
2017-08-27T12:07:05.675Z,26.88
2017-08-27T12:08:06.304Z,26.67
2017-08-27T12:09:07.229Z,26.29
2017-08-27T12:10:07.861Z,26.39
2017-08-27T12:11:08.491Z,26.48
2017-08-27T12:12:09.116Z,27.25
2017-08-27T12:13:09.749Z,27.25
2017-08-27T12:14:10.474Z,27.66
2017-08-27T12:15:11.102Z,27.75
2017-08-27T12:16:11.749Z,27.57
2017-08-27T12:17:12.399Z,27.28
2017-08-27T12:18:13.026Z,26.41
2017-08-27T12:19:13.759Z,26.51
2017-08-27T12:20:14.382Z,26.12
2017-08-27T12:21:15.041Z,26.99
2017-08-27T12:22:15.668Z,27.28
2017-08-27T12:23:16.299Z,27.00
2017-08-27T12:24:17.024Z,27.29
2017-08-27T12:25:17.650Z,27.10
2017-08-27T12:26:18.283Z,26.81
2017-08-27T12:27:18.921Z,27.00
2017-08-27T12:28:19.543Z,27.40
2017-08-27T12:29:20.266Z,27.31
2017-08-27T12:30:20.900Z,26.34
2017-08-27T12:31:21.563Z,26.34
2017-08-27T12:32:22.188Z,26.73
2017-08-27T12:33:22.820Z,26.92
2017-08-27T12:34:23.548Z,27.31
2017-08-27T12:35:24.181Z,26.53
2017-08-27T12:36:24.850Z,25.56
2017-08-27T12:37:25.518Z,26.53
2017-08-27T12:38:26.134Z,26.53
2017-08-27T12:39:26.863Z,26.73
2017-08-27T12:40:27.524Z,27.51
2017-08-27T12:41:28.154Z,27.81
2017-08-27T12:42:28.781Z,27.14
2017-08-27T12:43:29.409Z,26.27
2017-08-27T12:44:30.141Z,26.27
2017-08-27T12:45:30.771Z,26.26
2017-08-27T12:46:31.401Z,26.74
2017-08-27T12:47:32.025Z,26.93
2017-08-27T12:48:32.654Z,26.93
2017-08-27T12:49:33.283Z,26.06
2017-08-27T12:50:33.912Z,26.15
2017-08-27T12:51:34.637Z,27.20
2017-08-27T12:52:35.268Z,28.07
2017-08-27T12:53:35.912Z,28.47
2017-08-27T12:54:36.527Z,28.08
2017-08-27T12:55:37.159Z,28.38
2017-08-27T12:56:37.975Z,28.00
2017-08-27T12:57:38.600Z,27.21
2017-08-27T12:58:39.227Z,27.40
2017-08-27T12:59:39.853Z,27.40
2017-08-27T13:00:40.486Z,27.11